Time;durP1;ratioP1;P1;durP2;ratioP2;P2;SDS_P1;SDS_P2;PMS_P1;PMS_P2;Temp;Humidity;BMP_temperature;BMP_pressure;BME280_temperature;BME280_humidity;BME280_pressure;Samples;Min_cycle;Max_cycle;Signal;HPM_P1;HPM_P2
2023/07/03 00:02:18;;;;;;;;;;;;;;;27.34;54.13;100701.94;5005516;28;19927;-79
2023/07/03 00:04:45;;;;;;;;;;;;;;;27.35;53.77;100698.38;4992021;28;19913;-81
2023/07/03 00:07:11;;;;;;;;;;;;;;;27.37;53.83;100696.56;4996342;28;19914;-80
2023/07/03 00:09:36;;;;;;;;;;;;;;;27.36;54.23;100697.44;5023537;28;19914;-80
2023/07/03 00:12:02;;;;;;;;;;;;;;;27.34;54.16;100694.78;5019603;28;19997;-79
2023/07/03 00:14:27;;;;;;;;;;;;;;;27.36;53.84;100695.66;5008233;28;20484;-80
2023/07/03 00:16:55;;;;;;;;;;;;;;;27.35;54.25;100691.22;5011131;28;19975;-81
2023/07/03 00:19:26;;;;;;;;;;;;;;;27.34;54.58;100694.78;5005680;28;19953;-81
2023/07/03 00:21:52;;;;;;;;;;;;;;;27.34;54.23;100692.09;5016526;28;19917;-81
2023/07/03 00:24:18;;;;;;;;;;;;;;;27.30;54.25;100695.75;5009037;28;20422;-81
2023/07/03 00:26:43;;;;;;;;;;;;;;;27.30;54.46;100693.06;4978181;28;20011;-79
2023/07/03 00:29:09;;;;;;;;;;;;;;;27.31;54.57;100688.63;5003223;28;19913;-80
2023/07/03 00:31:34;;;;;;;;;;;;;;;27.32;54.50;100685.00;5009695;28;19909;-80
2023/07/03 00:34:00;;;;;;;;;;;;;;;27.31;54.21;100689.50;5010604;28;20376;-79
2023/07/03 00:36:25;;;;;;;;;;;;;;;27.29;54.34;100688.63;5011078;28;19920;-80
2023/07/03 00:38:57;;;;;;;;;;;;;;;27.31;54.31;100689.50;5007982;28;19920;-80
2023/07/03 00:41:22;;;;;;;;;;;;;;;27.30;54.52;100687.69;5013609;28;19921;-82
2023/07/03 00:43:48;;;;;;;;;;;;;;;27.29;54.79;100694.00;5008795;28;20115;-81
2023/07/03 00:46:15;;;;;;;;;;;;;;;27.29;54.92;100695.78;5004008;28;20358;-80
2023/07/03 00:48:41;;;;;;;;;;;;;;;27.27;54.93;100694.94;5010616;28;19909;-80
2023/07/03 00:51:07;;;;;;;;;;;;;;;27.27;54.83;100697.63;5010346;28;20399;-81
2023/07/03 00:53:32;;;;;;;;;;;;;;;27.25;54.92;100691.38;4993186;28;19913;-80
2023/07/03 00:55:57;;;;;;;;;;;;;;;27.26;55.07;100690.47;4993678;28;19917;-81
2023/07/03 00:58:23;;;;;;;;;;;;;;;27.26;54.98;100694.03;4987380;28;19924;-81
2023/07/03 01:00:51;;;;;;;;;;;;;;;27.25;54.86;100686.03;5006373;28;20392;-80
2023/07/03 01:03:21;;;;;;;;;;;;;;;27.21;54.95;100686.03;4986321;28;20004;-80
2023/07/03 01:05:47;;;;;;;;;;;;;;;27.23;54.99;100683.34;5008786;28;20343;-80
2023/07/03 01:08:12;;;;;;;;;;;;;;;27.23;54.84;100682.47;5017415;28;19909;-80
2023/07/03 01:10:37;;;;;;;;;;;;;;;27.21;55.17;100686.03;5020728;28;19910;-80
2023/07/03 01:13:04;;;;;;;;;;;;;;;27.20;54.89;100683.38;5009982;28;19913;-79
2023/07/03 01:15:33;;;;;;;;;;;;;;;27.20;54.95;100686.94;4993519;28;19971;-80
2023/07/03 01:17:59;;;;;;;;;;;;;;;27.19;55.18;100687.84;4988513;28;19913;-80
2023/07/03 01:20:25;;;;;;;;;;;;;;;27.17;55.39;100686.97;5024235;28;20339;-79
2023/07/03 01:22:53;;;;;;;;;;;;;;;27.15;55.18;100683.44;4994668;28;19917;-80
2023/07/03 01:25:19;;;;;;;;;;;;;;;27.16;55.30;100687.03;5011424;28;19913;-80
2023/07/03 01:27:45;;;;;;;;;;;;;;;27.15;55.70;100690.59;4991082;28;20303;-80
2023/07/03 01:30:12;;;;;;;;;;;;;;;27.14;55.46;100697.75;4998708;28;20381;-79
2023/07/03 01:32:38;;;;;;;;;;;;;;;27.13;55.32;100700.47;5009234;28;19933;-80
2023/07/03 01:35:04;;;;;;;;;;;;;;;27.14;55.44;100700.44;4991641;28;19913;-80
2023/07/03 01:37:30;;;;;;;;;;;;;;;27.12;55.40;100698.72;4988502;28;20324;-80
2023/07/03 01:39:55;;;;;;;;;;;;;;;27.11;55.52;100695.13;4985270;28;19921;-80
2023/07/03 01:42:21;;;;;;;;;;;;;;;27.12;55.38;100699.59;4990073;28;19913;-80
2023/07/03 01:44:47;;;;;;;;;;;;;;;27.13;55.52;100692.41;5008245;28;19916;-80
2023/07/03 01:47:12;;;;;;;;;;;;;;;27.12;55.41;100696.03;5007185;28;19914;-80
2023/07/03 01:49:38;;;;;;;;;;;;;;;27.09;55.41;100690.69;5007434;28;20377;-80
2023/07/03 01:52:17;;;;;;;;;;;;;;;27.10;55.31;100698.72;5018537;28;19921;-80
2023/07/03 01:54:48;;;;;;;;;;;;;;;27.09;55.54;100699.63;4995402;28;19929;-80
2023/07/03 01:57:15;;;;;;;;;;;;;;;27.07;55.60;100690.72;5025080;28;20268;-81
2023/07/03 01:59:41;;;;;;;;;;;;;;;27.09;55.82;100691.56;4992994;28;19917;-81
2023/07/03 02:02:15;;;;;;;;;;;;;;;27.08;55.51;100688.94;4994230;28;19914;-81
2023/07/03 02:04:42;;;;;;;;;;;;;;;27.08;55.61;100699.66;5018468;28;19964;-81
2023/07/03 02:07:07;;;;;;;;;;;;;;;27.09;55.69;100693.38;5000019;28;19999;-81
2023/07/03 02:09:33;;;;;;;;;;;;;;;27.08;55.69;100694.31;5022077;28;20459;-81
2023/07/03 02:11:58;;;;;;;;;;;;;;;27.05;55.48;100705.03;5027985;28;19920;-81
2023/07/03 02:14:24;;;;;;;;;;;;;;;27.04;55.86;100705.97;5006153;28;19914;-80
2023/07/03 02:16:52;;;;;;;;;;;;;;;27.05;55.72;100707.72;5007830;28;19920;-80
2023/07/03 02:19:19;;;;;;;;;;;;;;;27.03;55.58;100715.81;5014009;28;19914;-81
2023/07/03 02:21:45;;;;;;;;;;;;;;;27.05;55.37;100715.78;5021322;28;20012;-81
2023/07/03 02:24:11;;;;;;;;;;;;;;;27.02;55.53;100708.66;5012081;28;20011;-81
2023/07/03 02:26:37;;;;;;;;;;;;;;;27.03;55.59;100718.50;4999607;28;19963;-80
2023/07/03 02:29:02;;;;;;;;;;;;;;;27.01;56.12;100720.31;5019878;28;19913;-80
2023/07/03 02:31:28;;;;;;;;;;;;;;;27.01;55.86;100725.69;5017560;28;19913;-80
2023/07/03 02:33:53;;;;;;;;;;;;;;;26.98;56.13;100726.56;5007353;28;19917;-81
2023/07/03 02:36:18;;;;;;;;;;;;;;;26.97;56.19;100737.34;5018277;28;20380;-81
2023/07/03 02:38:44;;;;;;;;;;;;;;;26.95;56.08;100740.03;5003182;28;19957;-80
2023/07/03 02:41:10;;;;;;;;;;;;;;;26.96;56.05;100739.13;5008577;28;20570;-81
2023/07/03 02:43:35;;;;;;;;;;;;;;;26.96;55.61;100731.06;5007610;28;20303;-81
2023/07/03 02:46:04;;;;;;;;;;;;;;;26.96;55.99;100733.75;4998603;28;19953;-81
2023/07/03 02:48:30;;;;;;;;;;;;;;;26.96;56.05;100738.22;5015723;28;20442;-81
2023/07/03 02:50:55;;;;;;;;;;;;;;;26.95;55.80;100741.84;5010266;28;19917;-81
2023/07/03 02:53:20;;;;;;;;;;;;;;;26.94;56.18;100743.59;4999836;28;19910;-81
2023/07/03 02:55:49;;;;;;;;;;;;;;;26.94;55.83;100742.72;5009117;28;20396;-81
2023/07/03 02:58:14;;;;;;;;;;;;;;;26.93;56.20;100739.19;5006393;28;19920;-81
2023/07/03 03:00:40;;;;;;;;;;;;;;;26.93;56.12;100743.66;5010542;28;19918;-82
2023/07/03 03:03:06;;;;;;;;;;;;;;;26.92;56.11;100741.88;5008242;28;19963;-81
2023/07/03 03:05:32;;;;;;;;;;;;;;;26.92;55.84;100748.09;5008399;28;19921;-80
2023/07/03 03:07:57;;;;;;;;;;;;;;;26.91;55.78;100749.03;5015582;28;19917;-80
2023/07/03 03:10:23;;;;;;;;;;;;;;;26.89;56.05;100745.47;5014906;28;19913;-80
2023/07/03 03:12:48;;;;;;;;;;;;;;;26.91;56.34;100742.78;5012658;28;19928;-81
2023/07/03 03:15:17;;;;;;;;;;;;;;;26.90;55.95;100741.91;5011274;28;19913;-80
2023/07/03 03:17:42;;;;;;;;;;;;;;;26.89;56.25;100742.78;5011111;28;19926;-80
2023/07/03 03:20:08;;;;;;;;;;;;;;;26.88;55.87;100742.81;5006682;28;19917;-80
2023/07/03 03:22:33;;;;;;;;;;;;;;;26.89;55.92;100745.47;5012823;28;19983;-80
2023/07/03 03:24:59;;;;;;;;;;;;;;;26.90;55.89;100741.00;5006606;28;19956;-80
2023/07/03 03:27:24;;;;;;;;;;;;;;;26.88;55.79;100742.81;5000903;28;19913;-81
2023/07/03 03:29:50;;;;;;;;;;;;;;;26.87;55.90;100744.63;5008970;28;20308;-80
2023/07/03 03:32:15;;;;;;;;;;;;;;;26.87;55.97;100754.44;5003461;28;20324;-80
2023/07/03 03:34:41;;;;;;;;;;;;;;;26.86;55.98;100750.91;4994335;28;19955;-80
2023/07/03 03:37:06;;;;;;;;;;;;;;;26.85;56.01;100751.78;5001571;28;20388;-81
2023/07/03 03:39:32;;;;;;;;;;;;;;;26.85;56.15;100743.75;4998278;28;20305;-80
2023/07/03 03:41:57;;;;;;;;;;;;;;;26.84;55.99;100746.44;5006618;28;20406;-80
2023/07/03 03:44:23;;;;;;;;;;;;;;;26.84;55.97;100751.78;5003240;28;19942;-80
2023/07/03 03:46:48;;;;;;;;;;;;;;;26.84;56.14;100754.47;5005317;28;19920;-80
2023/07/03 03:49:13;;;;;;;;;;;;;;;26.82;56.03;100759.88;5006042;28;19984;-80
2023/07/03 03:51:40;;;;;;;;;;;;;;;26.82;56.09;100751.84;5012019;28;19917;-80
2023/07/03 03:54:07;;;;;;;;;;;;;;;26.83;56.11;100758.06;5007183;28;19917;-82
2023/07/03 03:56:32;;;;;;;;;;;;;;;26.82;55.96;100765.25;5007089;28;19924;-81
2023/07/03 03:58:57;;;;;;;;;;;;;;;26.80;55.86;100762.56;4996356;28;19917;-81
2023/07/03 04:01:23;;;;;;;;;;;;;;;26.80;56.09;100767.94;5002696;28;20396;-80
2023/07/03 04:03:48;;;;;;;;;;;;;;;26.80;56.19;100767.06;5012270;28;20375;-79
2023/07/03 04:06:16;;;;;;;;;;;;;;;26.77;56.06;100770.63;5009073;28;20407;-81
2023/07/03 04:08:42;;;;;;;;;;;;;;;26.78;56.09;100779.59;5024651;28;20376;-81
2023/07/03 04:11:07;;;;;;;;;;;;;;;26.77;55.92;100770.63;5007708;28;20004;-81
2023/07/03 04:13:32;;;;;;;;;;;;;;;26.78;56.03;100784.94;5009112;28;19959;-81
2023/07/03 04:16:00;;;;;;;;;;;;;;;26.76;56.01;100792.09;5006294;28;20402;-80
2023/07/03 04:18:26;;;;;;;;;;;;;;;26.76;56.29;100792.09;5014144;28;19913;-79
2023/07/03 04:20:52;;;;;;;;;;;;;;;26.77;56.06;100793.88;5013993;28;20025;-79
2023/07/03 04:23:18;;;;;;;;;;;;;;;26.76;56.25;100792.09;5015710;28;20015;-81
2023/07/03 04:25:43;;;;;;;;;;;;;;;26.75;56.38;100793.88;5015812;28;19913;-79
2023/07/03 04:28:09;;;;;;;;;;;;;;;26.76;56.05;100798.34;5008120;28;19917;-80
2023/07/03 04:30:35;;;;;;;;;;;;;;;26.73;56.18;100802.84;5013880;28;19936;-80
2023/07/03 04:33:00;;;;;;;;;;;;;;;26.74;56.09;100804.63;5011850;28;19917;-78
2023/07/03 04:35:25;;;;;;;;;;;;;;;26.74;56.35;100804.63;5004831;28;20539;-79
2023/07/03 04:37:51;;;;;;;;;;;;;;;26.74;56.29;100810.88;4992861;28;19968;-79
2023/07/03 04:40:17;;;;;;;;;;;;;;;26.73;56.30;100808.19;5005342;28;19918;-79
2023/07/03 04:42:43;;;;;;;;;;;;;;;26.72;56.05;100818.03;4996506;28;20455;-82
2023/07/03 04:45:08;;;;;;;;;;;;;;;26.73;55.99;100808.19;5009756;28;19913;-82
2023/07/03 04:47:43;;;;;;;;;;;;;;;26.71;56.16;100810.94;4999436;28;19917;-82
2023/07/03 04:50:14;;;;;;;;;;;;;;;26.69;56.04;100806.47;5003381;28;19913;-81
2023/07/03 04:52:40;;;;;;;;;;;;;;;26.69;55.85;100814.50;5012196;28;19924;-81
2023/07/03 04:55:07;;;;;;;;;;;;;;;26.69;56.19;100819.84;5012037;28;19913;-80
2023/07/03 04:57:32;;;;;;;;;;;;;;;26.71;56.01;100827.00;5011652;28;19918;-81
2023/07/03 05:00:00;;;;;;;;;;;;;;;26.70;56.14;100830.56;4992303;28;19928;-82
2023/07/03 05:02:25;;;;;;;;;;;;;;;26.69;55.98;100833.25;4992079;28;19972;-82
2023/07/03 05:04:51;;;;;;;;;;;;;;;26.68;56.05;100840.41;5010439;28;19921;-81
2023/07/03 05:07:20;;;;;;;;;;;;;;;26.70;56.19;100845.75;5011536;28;19914;-84
2023/07/03 05:09:46;;;;;;;;;;;;;;;26.69;55.81;100858.28;5005370;28;19919;-82
2023/07/03 05:12:12;;;;;;;;;;;;;;;26.66;55.85;100858.28;5011851;28;20367;-81
2023/07/03 05:14:37;;;;;;;;;;;;;;;26.68;55.98;100858.28;5016437;28;19964;-82
2023/07/03 05:17:03;;;;;;;;;;;;;;;26.66;55.96;100869.00;5003434;28;20656;-81
2023/07/03 05:19:28;;;;;;;;;;;;;;;26.66;55.85;100871.69;5012263;28;19948;-82
2023/07/03 05:21:54;;;;;;;;;;;;;;;26.65;55.84;100880.63;4971750;28;20707;-82
2023/07/03 05:24:19;;;;;;;;;;;;;;;26.64;56.02;100875.28;5004418;28;19924;-80
2023/07/03 05:26:45;;;;;;;;;;;;;;;26.64;55.97;100886.00;5005552;28;20400;-80
2023/07/03 05:29:10;;;;;;;;;;;;;;;26.64;55.55;100892.25;4988857;28;19917;-81
2023/07/03 05:31:36;;;;;;;;;;;;;;;26.63;56.04;100894.94;5006681;28;19913;-81
2023/07/03 05:34:01;;;;;;;;;;;;;;;26.60;56.07;100902.09;5000833;28;20328;-83
2023/07/03 05:36:26;;;;;;;;;;;;;;;26.60;55.71;100904.78;4990693;28;20007;-82
2023/07/03 05:38:52;;;;;;;;;;;;;;;26.61;55.69;100897.66;5007238;28;20610;-83
2023/07/03 05:41:17;;;;;;;;;;;;;;;26.60;55.69;100902.09;5006415;28;19924;-81
2023/07/03 05:43:43;;;;;;;;;;;;;;;26.62;55.82;100904.75;5014658;28;19921;-81
2023/07/03 05:46:08;;;;;;;;;;;;;;;26.59;55.69;100894.09;5006644;28;20006;-81
2023/07/03 05:48:34;;;;;;;;;;;;;;;26.60;55.54;100899.41;4994064;28;19984;-81
2023/07/03 05:50:59;;;;;;;;;;;;;;;26.60;55.73;100903.88;5010514;28;20463;-81
2023/07/03 05:53:24;;;;;;;;;;;;;;;26.60;55.75;100906.56;5008816;28;20411;-82
2023/07/03 05:55:54;;;;;;;;;;;;;;;26.59;55.63;100903.00;4995166;28;19914;-81
2023/07/03 05:58:19;;;;;;;;;;;;;;;26.58;55.76;100905.69;5005353;28;19910;-82
2023/07/03 06:00:46;;;;;;;;;;;;;;;26.57;55.37;100909.28;5006554;28;19914;-84
2023/07/03 06:03:12;;;;;;;;;;;;;;;26.55;55.34;100914.63;5000820;28;19916;-83
2023/07/03 06:05:37;;;;;;;;;;;;;;;26.57;55.29;100912.84;5008843;28;21377;-85
2023/07/03 06:08:03;;;;;;;;;;;;;;;26.57;55.52;100911.97;5020506;28;20370;-84
2023/07/03 06:10:28;;;;;;;;;;;;;;;26.57;55.62;100917.34;4993193;28;19910;-83
2023/07/03 06:12:54;;;;;;;;;;;;;;;26.56;55.23;100926.22;4999133;28;20311;-82
2023/07/03 06:15:19;;;;;;;;;;;;;;;26.54;55.45;100936.97;5012173;28;20296;-82
2023/07/03 06:17:44;;;;;;;;;;;;;;;26.54;55.42;100949.44;5012357;28;20308;-83
2023/07/03 06:20:10;;;;;;;;;;;;;;;26.53;55.49;100942.31;5008430;28;20698;-83
2023/07/03 06:22:36;;;;;;;;;;;;;;;26.49;55.97;100951.28;5010044;28;20397;-83
2023/07/03 06:25:02;;;;;;;;;;;;;;;26.50;55.67;100947.69;4992566;28;19921;-84
2023/07/03 06:27:27;;;;;;;;;;;;;;;26.50;55.74;100950.38;5010846;28;20434;-83
2023/07/03 06:29:52;;;;;;;;;;;;;;;26.47;56.11;100955.78;5014040;28;19925;-82
2023/07/03 06:32:18;;;;;;;;;;;;;;;26.48;56.24;100954.84;5018758;28;19917;-82
2023/07/03 06:34:43;;;;;;;;;;;;;;;26.48;55.85;100946.81;5011623;28;20389;-82
2023/07/03 06:37:09;;;;;;;;;;;;;;;26.50;55.67;100945.03;5017113;28;19956;-83
2023/07/03 06:39:36;;;;;;;;;;;;;;;26.50;55.85;100950.38;5006157;28;19917;-82
2023/07/03 06:42:02;;;;;;;;;;;;;;;26.49;55.48;100944.13;4992578;28;20514;-82
2023/07/03 06:44:28;;;;;;;;;;;;;;;26.48;55.78;100937.03;5005493;28;20004;-83
2023/07/03 06:46:53;;;;;;;;;;;;;;;26.48;55.41;100939.69;4997601;28;19996;-83
2023/07/03 06:49:22;;;;;;;;;;;;;;;26.47;55.57;100945.06;5003572;28;19910;-82
2023/07/03 06:51:47;;;;;;;;;;;;;;;26.47;55.63;100945.94;5009332;28;20000;-81
2023/07/03 06:54:13;;;;;;;;;;;;;;;26.45;55.55;100949.53;5009900;28;20365;-81
2023/07/03 06:56:38;;;;;;;;;;;;;;;26.45;55.48;100960.25;5005603;28;20307;-83
2023/07/03 06:59:04;;;;;;;;;;;;;;;26.45;55.51;100968.28;5007073;28;19960;-83
2023/07/03 07:01:29;;;;;;;;;;;;;;;26.44;55.26;100966.50;5012699;28;19971;-81
2023/07/03 07:03:55;;;;;;;;;;;;;;;26.45;55.58;100974.53;5004218;28;19917;-82
2023/07/03 07:06:22;;;;;;;;;;;;;;;26.41;55.29;100972.75;5001770;28;20418;-83
2023/07/03 07:08:48;;;;;;;;;;;;;;;26.41;55.47;100978.13;4986169;28;20305;-84
2023/07/03 07:11:15;;;;;;;;;;;;;;;26.39;55.04;100983.53;5007247;28;20403;-82
2023/07/03 07:13:42;;;;;;;;;;;;;;;26.39;54.92;100980.84;4995934;28;19915;-83
2023/07/03 07:16:14;;;;;;;;;;;;;;;26.41;55.08;100979.00;4992903;28;20591;-82
2023/07/03 07:18:40;;;;;;;;;;;;;;;26.40;55.08;100968.31;5006816;28;19910;-83
2023/07/03 07:21:05;;;;;;;;;;;;;;;26.38;54.94;100975.50;4994186;28;20285;-84
2023/07/03 07:23:31;;;;;;;;;;;;;;;26.39;55.00;100982.59;5008765;28;19909;-84
2023/07/03 07:25:56;;;;;;;;;;;;;;;26.38;55.14;100986.19;5007982;28;19910;-83
2023/07/03 07:28:22;;;;;;;;;;;;;;;26.39;54.99;100993.31;5003373;28;19910;-84
2023/07/03 07:30:48;;;;;;;;;;;;;;;26.39;55.04;100994.22;5003605;28;20024;-82
2023/07/03 07:33:13;;;;;;;;;;;;;;;26.37;54.67;100995.13;5008080;28;19926;-83
2023/07/03 07:35:38;;;;;;;;;;;;;;;26.38;54.80;100997.78;5006296;28;19909;-82
2023/07/03 07:38:04;;;;;;;;;;;;;;;26.37;55.12;100998.69;4998103;28;19914;-84
2023/07/03 07:40:29;;;;;;;;;;;;;;;26.39;54.84;101001.34;5000084;28;20599;-83
2023/07/03 07:42:55;;;;;;;;;;;;;;;26.35;54.81;101004.94;5015869;28;20406;-81
2023/07/03 07:45:20;;;;;;;;;;;;;;;26.33;55.19;101001.38;5004041;28;20032;-84
2023/07/03 07:47:45;;;;;;;;;;;;;;;26.33;55.14;101002.31;5011926;28;20406;-83
2023/07/03 07:50:11;;;;;;;;;;;;;;;26.33;54.74;101004.06;5026545;28;20379;-83
2023/07/03 07:52:36;;;;;;;;;;;;;;;26.34;55.08;101008.53;5011465;28;19913;-83
2023/07/03 07:55:02;;;;;;;;;;;;;;;26.32;54.78;101010.34;4993400;28;19920;-82
2023/07/03 07:57:30;;;;;;;;;;;;;;;26.34;54.85;101006.75;5007853;28;19909;-82
2023/07/03 07:59:56;;;;;;;;;;;;;;;26.33;54.86;100999.63;5002366;28;19913;-83
2023/07/03 08:02:21;;;;;;;;;;;;;;;26.34;54.93;101005.84;4993510;28;19915;-83
2023/07/03 08:04:47;;;;;;;;;;;;;;;26.36;54.88;100996.03;5005903;28;19909;-82
2023/07/03 08:07:12;;;;;;;;;;;;;;;26.30;54.51;100999.63;5002123;28;20028;-82
2023/07/03 08:09:38;;;;;;;;;;;;;;;26.28;54.85;100998.75;4995899;28;20319;-82
2023/07/03 08:12:04;;;;;;;;;;;;;;;26.30;54.78;101004.97;4997304;28;20439;-82
2023/07/03 08:14:29;;;;;;;;;;;;;;;26.32;54.70;101007.66;5009122;28;20304;-82
2023/07/03 08:16:55;;;;;;;;;;;;;;;26.33;54.59;101004.06;5022328;28;19917;-84
2023/07/03 08:19:20;;;;;;;;;;;;;;;26.29;54.34;101003.22;5010878;28;20044;-82
2023/07/03 08:21:47;;;;;;;;;;;;;;;26.28;54.53;101011.25;5010771;28;19913;-83
2023/07/03 08:24:12;;;;;;;;;;;;;;;26.28;54.84;101006.78;5027564;28;20007;-83
2023/07/03 08:26:38;;;;;;;;;;;;;;;26.32;54.83;101004.97;5011995;28;20483;-84
2023/07/03 08:29:03;;;;;;;;;;;;;;;26.27;54.48;101004.09;5004723;28;19909;-82
2023/07/03 08:31:28;;;;;;;;;;;;;;;26.27;54.69;100999.66;5008405;28;19914;-82
2023/07/03 08:33:55;;;;;;;;;;;;;;;26.30;54.55;101006.78;5006631;28;19927;-83
2023/07/03 08:36:21;;;;;;;;;;;;;;;26.28;54.29;101004.09;5002877;28;20437;-82
2023/07/03 08:38:47;;;;;;;;;;;;;;;26.25;54.66;101005.94;5001589;28;19917;-83
2023/07/03 08:41:13;;;;;;;;;;;;;;;26.20;54.75;101004.19;5000941;28;20523;-83
2023/07/03 08:43:42;;;;;;;;;;;;;;;26.22;54.63;101013.97;4992164;28;20003;-83
2023/07/03 08:46:09;;;;;;;;;;;;;;;26.22;54.79;101000.59;4997765;28;19910;-83
2023/07/03 08:48:34;;;;;;;;;;;;;;;26.20;54.57;101005.94;4993871;28;19932;-81
2023/07/03 08:51:00;;;;;;;;;;;;;;;26.22;54.75;101003.25;5011698;28;20536;-83
2023/07/03 08:53:39;;;;;;;;;;;;;;;26.20;54.50;100997.91;4993686;28;19967;-83
2023/07/03 08:56:10;;;;;;;;;;;;;;;26.18;54.69;101000.63;4992324;28;20384;-84
2023/07/03 08:58:36;;;;;;;;;;;;;;;26.19;54.85;100998.81;5007831;28;19917;-83
2023/07/03 09:01:11;;;;;;;;;;;;;;;26.19;54.90;100997.03;4992713;28;20324;-82
2023/07/03 09:03:42;;;;;;;;;;;;;;;26.19;54.75;101001.50;5004679;28;19953;-83
2023/07/03 09:06:15;;;;;;;;;;;;;;;26.20;54.79;101001.50;4987918;28;19936;-84
2023/07/03 09:08:53;;;;;;;;;;;;;;;26.21;54.75;100997.03;5035250;28;19924;-84
2023/07/03 09:11:19;;;;;;;;;;;;;;;26.20;54.72;101001.50;5015160;28;19910;-82
2023/07/03 09:13:49;;;;;;;;;;;;;;;26.22;54.68;100995.22;5010983;28;19916;-83
2023/07/03 09:16:14;;;;;;;;;;;;;;;26.20;54.73;100996.16;4996687;28;19909;-83
2023/07/03 09:18:43;;;;;;;;;;;;;;;26.22;55.05;100995.22;4997601;28;19924;-83
2023/07/03 09:21:09;;;;;;;;;;;;;;;26.22;54.65;101003.25;5017663;28;19913;-84
2023/07/03 09:23:38;;;;;;;;;;;;;;;26.22;54.97;100998.78;5009809;28;20336;-82
2023/07/03 09:26:18;;;;;;;;;;;;;;;26.23;54.65;101013.09;4997580;28;20021;-84
2023/07/03 09:28:44;;;;;;;;;;;;;;;26.24;54.94;101002.34;4994611;28;20373;-84
2023/07/03 09:31:10;;;;;;;;;;;;;;;26.23;54.94;101002.38;5009340;28;19913;-84
2023/07/03 09:33:37;;;;;;;;;;;;;;;26.24;55.03;100998.78;5001116;28;20308;-83
2023/07/03 09:36:19;;;;;;;;;;;;;;;26.20;54.99;100997.91;5005107;28;20336;-83
2023/07/03 09:38:45;;;;;;;;;;;;;;;26.26;54.99;101002.34;5007529;28;20304;-83
2023/07/03 09:41:10;;;;;;;;;;;;;;;26.23;54.78;100999.69;5023611;28;19924;-83
2023/07/03 09:43:37;;;;;;;;;;;;;;;26.22;54.80;101000.59;5013150;28;20420;-82
2023/07/03 09:46:07;;;;;;;;;;;;;;;26.26;54.83;100989.84;4996889;28;20347;-83
2023/07/03 09:48:34;;;;;;;;;;;;;;;26.26;54.75;100987.16;5014249;28;19994;-82
2023/07/03 09:50:59;;;;;;;;;;;;;;;26.27;55.08;100990.72;4996880;28;19916;-82
2023/07/03 09:53:26;;;;;;;;;;;;;;;26.27;54.95;100985.38;4996251;28;19909;-83
2023/07/03 09:55:53;;;;;;;;;;;;;;;26.27;54.93;100988.03;4996611;28;19917;-82
2023/07/03 09:58:18;;;;;;;;;;;;;;;26.26;54.88;100980.94;5006253;28;19910;-82
2023/07/03 10:00:48;;;;;;;;;;;;;;;26.25;55.06;100977.38;5008113;28;19968;-83
2023/07/03 10:03:14;;;;;;;;;;;;;;;26.30;55.29;100980.00;5008020;28;20011;-81
2023/07/03 10:05:39;;;;;;;;;;;;;;;26.27;55.04;100974.66;4995456;28;20009;-82
2023/07/03 10:08:06;;;;;;;;;;;;;;;26.27;55.08;100974.66;5009957;28;19909;-82
2023/07/03 10:10:33;;;;;;;;;;;;;;;26.26;55.36;100973.78;5004981;28;20381;-83
2023/07/03 10:13:01;;;;;;;;;;;;;;;26.29;55.00;100967.50;4997254;28;19910;-82
2023/07/03 10:15:27;;;;;;;;;;;;;;;26.28;54.99;100961.28;4996784;28;19943;-84
2023/07/03 10:17:53;;;;;;;;;;;;;;;26.27;55.09;100956.84;4976466;28;19910;-83
2023/07/03 10:20:35;;;;;;;;;;;;;;;26.29;55.08;100962.16;5008104;28;19996;-83
2023/07/03 10:23:02;;;;;;;;;;;;;;;26.29;55.07;100955.03;4996553;28;19909;-83
2023/07/03 10:25:29;;;;;;;;;;;;;;;26.31;54.84;100955.91;4994986;28;19913;-82
2023/07/03 10:27:58;;;;;;;;;;;;;;;26.31;55.05;100953.22;5009225;28;20000;-82
2023/07/03 10:30:24;;;;;;;;;;;;;;;26.30;55.05;100951.44;4988663;28;19916;-82
2023/07/03 10:32:50;;;;;;;;;;;;;;;26.32;55.09;100948.75;5005796;28;19921;-82
2023/07/03 10:35:18;;;;;;;;;;;;;;;26.33;55.23;100948.75;4998229;28;20406;-83
2023/07/03 10:37:59;;;;;;;;;;;;;;;26.30;54.94;100946.09;5012170;28;20392;-82
2023/07/03 10:40:41;;;;;;;;;;;;;;;26.33;55.17;100946.06;5007862;28;20008;-82
2023/07/03 10:43:06;;;;;;;;;;;;;;;26.38;54.89;100956.75;5021364;28;19910;-83
2023/07/03 10:45:33;;;;;;;;;;;;;;;26.37;54.82;100949.59;5028473;28;19920;-83
2023/07/03 10:48:00;;;;;;;;;;;;;;;26.39;55.13;100958.50;5009964;28;19914;-82
2023/07/03 10:50:32;;;;;;;;;;;;;;;26.33;55.18;100962.13;4994703;28;20514;-83
2023/07/03 10:53:21;;;;;;;;;;;;;;;26.37;55.00;100974.59;4993021;28;20312;-83
2023/07/03 10:55:55;;;;;;;;;;;;;;;26.40;55.20;100981.72;4995128;28;20394;-82
2023/07/03 10:58:27;;;;;;;;;;;;;;;26.40;55.06;100984.41;5008247;28;19909;-82
2023/07/03 11:00:56;;;;;;;;;;;;;;;26.42;55.01;100985.28;4995349;28;19971;-83
2023/07/03 11:03:25;;;;;;;;;;;;;;;26.39;55.06;100977.25;5020054;28;20281;-82
2023/07/03 11:05:58;;;;;;;;;;;;;;;26.38;55.26;100981.72;5005465;28;19992;-84
2023/07/03 11:08:27;;;;;;;;;;;;;;;26.41;55.33;100970.97;5022699;28;19917;-82
2023/07/03 11:10:59;;;;;;;;;;;;;;;26.46;55.17;100970.03;5000550;28;19916;-85
2023/07/03 11:13:27;;;;;;;;;;;;;;;26.45;55.06;100970.97;5017737;28;20443;-82
2023/07/03 11:16:11;;;;;;;;;;;;;;;26.45;55.46;100970.97;5006437;28;20380;-82
2023/07/03 11:19:17;;;;;;;;;;;;;;;26.47;55.19;100963.81;4993444;28;19916;-81
2023/07/03 11:21:43;;;;;;;;;;;;;;;26.48;55.00;100957.53;4937181;29;19914;-82
2023/07/03 11:24:08;;;;;;;;;;;;;;;26.46;55.00;100959.34;4953362;29;19914;-84
2023/07/03 11:26:36;;;;;;;;;;;;;;;26.50;55.06;100955.72;4979403;28;19920;-83
2023/07/03 11:29:02;;;;;;;;;;;;;;;26.49;55.06;100941.47;5014712;28;20419;-85
2023/07/03 11:31:28;;;;;;;;;;;;;;;26.49;55.33;100948.63;5009901;28;19910;-83
2023/07/03 11:33:54;;;;;;;;;;;;;;;26.52;55.35;100949.47;4999443;28;19921;-83
2023/07/03 11:36:39;;;;;;;;;;;;;;;26.50;54.97;100943.25;4992221;28;19933;-84
2023/07/03 11:39:09;;;;;;;;;;;;;;;26.51;55.32;100938.78;5020040;28;19953;-82
2023/07/03 11:41:48;;;;;;;;;;;;;;;26.52;54.93;100945.91;5004976;28;20613;-84
2023/07/03 11:44:39;;;;;;;;;;;;;;;26.53;55.14;100945.88;5011167;28;19952;-83
2023/07/03 11:47:10;;;;;;;;;;;;;;;26.55;55.14;100948.56;5009638;28;19916;-83
2023/07/03 11:49:44;;;;;;;;;;;;;;;26.54;55.13;100947.69;5012544;28;19952;-83
2023/07/03 11:52:11;;;;;;;;;;;;;;;26.53;54.96;100953.03;4995831;28;20007;-84
2023/07/03 11:54:36;;;;;;;;;;;;;;;26.54;55.04;100963.75;5006495;28;19974;-82
2023/07/03 11:57:20;;;;;;;;;;;;;;;26.56;55.42;100961.03;5008645;28;19921;-83
2023/07/03 11:59:46;;;;;;;;;;;;;;;26.55;55.16;100970.88;5006867;28;19910;-83
2023/07/03 12:02:11;;;;;;;;;;;;;;;26.53;55.17;100970.00;5018654;28;19916;-83
2023/07/03 12:04:42;;;;;;;;;;;;;;;26.54;55.41;100965.53;5005136;28;19909;-82
2023/07/03 12:07:17;;;;;;;;;;;;;;;26.55;55.04;100964.63;5019758;28;20359;-84
2023/07/03 12:09:42;;;;;;;;;;;;;;;26.54;55.20;100962.84;4996313;28;19910;-84
2023/07/03 12:12:12;;;;;;;;;;;;;;;26.55;55.50;100957.47;5014858;28;19917;-83
2023/07/03 12:14:42;;;;;;;;;;;;;;;26.56;55.58;100959.31;5019772;28;19910;-84
2023/07/03 12:17:23;;;;;;;;;;;;;;;26.58;55.29;100957.47;5009819;28;19909;-83
2023/07/03 12:19:49;;;;;;;;;;;;;;;26.58;55.67;100959.25;5011960;28;20001;-83
2023/07/03 12:22:15;;;;;;;;;;;;;;;26.58;55.71;100964.63;5007916;28;20488;-84
2023/07/03 12:24:41;;;;;;;;;;;;;;;26.58;55.35;100959.25;4996115;28;19921;-85
2023/07/03 12:27:07;;;;;;;;;;;;;;;26.58;55.46;100953.91;4997070;28;19909;-84
2023/07/03 12:29:33;;;;;;;;;;;;;;;26.58;55.47;100948.56;4994208;28;20355;-84
2023/07/03 12:32:10;;;;;;;;;;;;;;;26.59;55.13;100950.34;5012959;28;19931;-83
2023/07/03 12:34:40;;;;;;;;;;;;;;;26.62;55.19;100952.97;4998549;28;20400;-83
2023/07/03 12:37:07;;;;;;;;;;;;;;;26.61;55.53;100951.22;4995576;28;19913;-83